Time;durP1;ratioP1;P1;durP2;ratioP2;P2;SDS_P1;SDS_P2;PMS_P1;PMS_P2;Temp;Humidity;BMP_temperature;BMP_pressure;BME280_temperature;BME280_humidity;BME280_pressure;Samples;Min_cycle;Max_cycle;Signal;HPM_P1;HPM_P2
2023/08/09 00:01:26;;;;;;;2.30;1.30;;;;;;;13.54;100.00;100735.60;106045;1256;65442;-46
2023/08/09 00:03:53;;;;;;;5.90;1.70;;;;;;;13.54;100.00;100743.41;105959;1251;72608;-46
2023/08/09 00:06:20;;;;;;;2.50;1.50;;;;;;;13.54;100.00;100746.16;105974;1256;61679;-44
2023/08/09 00:08:47;;;;;;;4.30;1.20;;;;;;;13.56;100.00;100755.31;105943;1251;60473;-45
2023/08/09 00:11:14;;;;;;;1.40;1.30;;;;;;;13.58;100.00;100754.20;105953;1250;72493;-46
2023/08/09 00:13:41;;;;;;;2.40;1.20;;;;;;;13.60;100.00;100759.02;105982;1256;65287;-45
2023/08/09 00:16:09;;;;;;;3.20;1.40;;;;;;;13.61;100.00;100766.08;105951;1251;71156;-45
2023/08/09 00:18:37;;;;;;;1.80;1.30;;;;;;;13.62;100.00;100769.34;106031;1256;61900;-45
2023/08/09 00:21:05;;;;;;;4.70;1.30;;;;;;;13.63;100.00;100767.56;105944;1252;60549;-46
2023/08/09 00:23:33;;;;;;;3.60;1.40;;;;;;;13.66;100.00;100764.58;105967;1255;73813;-49
2023/08/09 00:26:00;;;;;;;2.10;1.40;;;;;;;13.68;100.00;100761.91;105994;1257;65201;-46
2023/08/09 00:28:27;;;;;;;2.00;1.40;;;;;;;13.66;100.00;100743.92;106024;1255;72823;-45
2023/08/09 00:30:54;;;;;;;5.70;1.40;;;;;;;13.64;100.00;100740.00;106034;1257;61821;-47
2023/08/09 00:33:21;;;;;;;1.00;1.00;;;;;;;13.63;100.00;100750.25;105952;1257;60396;-46
2023/08/09 00:35:48;;;;;;;1.30;1.10;;;;;;;13.63;100.00;100751.46;105892;1257;73839;-46
2023/08/09 00:38:15;;;;;;;4.70;1.20;;;;;;;13.63;100.00;100749.55;105988;1256;65484;-46
2023/08/09 00:40:42;;;;;;;4.60;1.10;;;;;;;13.64;100.00;100751.78;105917;1256;71664;-45
2023/08/09 00:43:08;;;;;;;6.10;1.30;;;;;;;13.65;100.00;100757.15;105882;1256;62310;-47
2023/08/09 00:45:36;;;;;;;1.70;0.90;;;;;;;13.66;100.00;100761.11;105928;1254;60434;-45
2023/08/09 00:48:05;;;;;;;2.10;1.20;;;;;;;13.67;100.00;100757.61;105989;1256;73798;-47
2023/08/09 00:50:32;;;;;;;1.70;1.10;;;;;;;13.68;100.00;100755.85;105988;1258;65487;-46
2023/08/09 00:52:59;;;;;;;6.30;1.40;;;;;;;13.68;100.00;100755.33;105944;1252;72656;-45
2023/08/09 00:55:26;;;;;;;1.40;1.30;;;;;;;13.66;100.00;100752.08;105990;1251;61026;-45
2023/08/09 00:57:53;;;;;;;2.50;1.10;;;;;;;13.65;100.00;100755.75;105928;1251;60901;-45
2023/08/09 01:00:20;;;;;;;2.60;1.30;;;;;;;13.63;100.00;100758.38;105956;1251;73770;-44
2023/08/09 01:02:47;;;;;;;1.20;1.10;;;;;;;13.64;100.00;100758.73;105966;1256;64477;-45
2023/08/09 01:05:14;;;;;;;6.70;1.30;;;;;;;13.63;100.00;100749.56;105963;1251;72517;-45
2023/08/09 01:08:04;;;;;;;0.90;0.90;;;;;;;13.62;100.00;100745.59;106015;1253;61952;-45
2023/08/09 01:10:37;;;;;;;2.80;0.80;;;;;;;13.63;100.00;100744.52;105964;1253;60444;-44
2023/08/09 01:13:06;;;;;;;1.60;0.80;;;;;;;13.63;100.00;100748.52;105982;1255;74405;-44
2023/08/09 01:15:36;;;;;;;3.20;1.00;;;;;;;13.63;100.00;100752.31;105986;1256;65393;-46
2023/08/09 01:18:04;;;;;;;0.80;0.80;;;;;;;13.66;100.00;100747.56;105915;1261;72646;-47
2023/08/09 01:20:31;;;;;;;2.60;0.80;;;;;;;13.69;100.00;100748.37;105959;1255;61960;-44
2023/08/09 01:23:15;;;;;;;2.00;1.00;;;;;;;13.70;100.00;100744.02;105894;1250;60437;-44
2023/08/09 01:25:43;;;;;;;6.20;0.80;;;;;;;13.69;100.00;100745.92;106017;1256;73876;-45
2023/08/09 01:28:10;;;;;;;1.50;0.70;;;;;;;13.69;100.00;100748.02;105906;1257;65275;-45
2023/08/09 01:30:37;;;;;;;1.80;0.80;;;;;;;13.67;100.00;100752.04;105989;1256;72662;-45
2023/08/09 01:33:04;;;;;;;0.60;0.60;;;;;;;13.67;100.00;100752.95;105952;1251;61947;-45
2023/08/09 01:35:34;;;;;;;3.50;0.80;;;;;;;13.66;100.00;100756.58;105973;1253;60415;-46
2023/08/09 01:38:04;;;;;;;1.00;0.90;;;;;;;13.65;100.00;100758.52;105901;1257;72310;-45
2023/08/09 01:40:31;;;;;;;1.20;0.60;;;;;;;13.66;100.00;100764.05;105974;1251;64422;-45
2023/08/09 01:42:58;;;;;;;4.70;0.80;;;;;;;13.65;100.00;100759.91;105863;1251;72530;-45
2023/08/09 01:45:26;;;;;;;2.60;0.70;;;;;;;13.65;100.00;100764.24;105903;1254;62665;-45
2023/08/09 01:47:53;;;;;;;4.00;0.70;;;;;;;13.65;100.00;100767.90;105848;1257;60544;-45
2023/08/09 01:50:25;;;;;;;4.20;0.90;;;;;;;13.65;100.00;100769.96;105841;1256;73889;-44
2023/08/09 01:52:55;;;;;;;0.90;0.50;;;;;;;13.65;100.00;100774.13;105924;1264;64531;-44
2023/08/09 01:55:25;;;;;;;1.10;0.90;;;;;;;13.64;100.00;100776.76;105882;1257;72581;-44
2023/08/09 01:57:52;;;;;;;0.90;0.80;;;;;;;13.61;100.00;100780.29;105968;1256;60530;-44
2023/08/09 02:00:19;;;;;;;0.90;0.70;;;;;;;13.59;100.00;100774.98;105954;1256;60519;-44
2023/08/09 02:02:47;;;;;;;4.90;0.80;;;;;;;13.58;100.00;100771.35;105984;1252;72389;-45
2023/08/09 02:05:15;;;;;;;6.20;1.00;;;;;;;13.59;100.00;100765.11;105959;1256;65521;-45
2023/08/09 02:07:42;;;;;;;1.10;0.70;;;;;;;13.58;100.00;100768.40;105883;1255;72703;-45
2023/08/09 02:10:10;;;;;;;3.50;0.80;;;;;;;13.56;100.00;100770.21;105953;1256;62012;-45
2023/08/09 02:12:37;;;;;;;1.70;0.80;;;;;;;13.53;100.00;100769.78;106028;1256;60494;-46
2023/08/09 02:15:06;;;;;;;2.00;0.90;;;;;;;13.52;100.00;100771.02;105944;1255;73883;-45
2023/08/09 02:17:35;;;;;;;2.10;1.10;;;;;;;13.52;100.00;100772.40;105901;1258;65700;-44
2023/08/09 02:20:04;;;;;;;3.40;1.20;;;;;;;13.52;100.00;100772.23;106010;1258;72398;-45
2023/08/09 02:22:36;;;;;;;0.90;0.90;;;;;;;13.53;100.00;100769.43;105959;1256;60553;-45
2023/08/09 02:25:04;;;;;;;6.60;1.00;;;;;;;13.54;100.00;100770.97;106026;1255;60328;-46
2023/08/09 02:27:31;;;;;;;2.50;0.80;;;;;;;13.52;100.00;100773.09;105945;1254;73811;-45
2023/08/09 02:30:03;;;;;;;1.40;0.90;;;;;;;13.51;100.00;100781.60;105932;1251;65373;-45
2023/08/09 02:32:31;;;;;;;1.10;1.10;;;;;;;13.52;100.00;100789.56;105963;1255;72722;-45
2023/08/09 02:34:58;;;;;;;1.30;1.10;;;;;;;13.54;100.00;100795.75;105997;1255;61848;-44
2023/08/09 02:37:25;;;;;;;1.20;1.10;;;;;;;13.56;100.00;100800.73;106033;1251;60526;-50
2023/08/09 02:39:52;;;;;;;1.80;0.90;;;;;;;13.56;100.00;100807.84;106019;1251;73832;-47
2023/08/09 02:42:19;;;;;;;1.10;1.10;;;;;;;13.56;100.00;100807.51;105986;1255;65389;-45
2023/08/09 02:44:47;;;;;;;6.80;1.30;;;;;;;13.55;100.00;100809.75;105944;1251;73088;-46
2023/08/09 02:47:14;;;;;;;1.90;0.90;;;;;;;13.57;100.00;100820.30;106036;1256;61929;-44
2023/08/09 02:49:41;;;;;;;6.30;1.30;;;;;;;13.57;100.00;100820.64;105926;1253;60527;-44
2023/08/09 02:52:07;;;;;;;2.40;1.40;;;;;;;13.58;100.00;100821.12;105943;1253;73957;-47
2023/08/09 02:54:35;;;;;;;4.50;1.30;;;;;;;13.59;100.00;100825.96;105978;1257;65410;-46
2023/08/09 02:57:02;;;;;;;3.10;1.50;;;;;;;13.59;100.00;100828.56;105873;1251;72825;-47
2023/08/09 02:59:30;;;;;;;1.10;1.10;;;;;;;13.59;100.00;100826.48;105994;1251;61908;-46
2023/08/09 03:01:57;;;;;;;6.30;1.60;;;;;;;13.59;100.00;100825.80;105963;1251;60300;-45
2023/08/09 03:04:24;;;;;;;5.50;1.90;;;;;;;13.59;100.00;100826.83;105947;1251;74296;-46
2023/08/09 03:06:52;;;;;;;3.00;1.80;;;;;;;13.60;100.00;100831.33;105996;1256;65605;-45
2023/08/09 03:09:20;;;;;;;2.80;1.50;;;;;;;13.60;100.00;100837.55;105968;1257;73157;-44
2023/08/09 03:11:47;;;;;;;1.60;1.50;;;;;;;13.60;100.00;100839.80;105942;1256;60872;-44
2023/08/09 03:14:14;;;;;;;6.40;1.20;;;;;;;13.61;100.00;100840.30;105849;1255;60486;-44
2023/08/09 03:16:42;;;;;;;1.20;1.20;;;;;;;13.59;100.00;100844.17;105925;1257;73678;-45
2023/08/09 03:19:10;;;;;;;2.50;0.90;;;;;;;13.56;100.00;100846.33;105975;1251;65170;-44
2023/08/09 03:21:38;;;;;;;3.10;1.30;;;;;;;13.54;100.00;100851.24;105973;1254;72649;-45
2023/08/09 03:24:05;;;;;;;2.90;1.30;;;;;;;13.52;100.00;100858.04;105853;1252;61898;-45
2023/08/09 03:26:32;;;;;;;3.00;1.20;;;;;;;13.51;100.00;100862.39;105983;1251;60643;-45
2023/08/09 03:29:02;;;;;;;2.90;1.20;;;;;;;13.49;100.00;100860.52;105905;1257;72855;-44
2023/08/09 03:31:30;;;;;;;3.60;1.10;;;;;;;13.48;100.00;100857.59;105994;1255;65387;-46
2023/08/09 03:34:00;;;;;;;3.00;0.90;;;;;;;13.48;100.00;100854.83;105928;1251;72776;-46
2023/08/09 03:36:27;;;;;;;4.20;1.00;;;;;;;13.47;100.00;100855.54;105924;1252;61841;-45
2023/08/09 03:38:54;;;;;;;5.50;0.90;;;;;;;13.45;100.00;100849.34;105997;1251;60431;-46
2023/08/09 03:41:22;;;;;;;4.40;0.90;;;;;;;13.44;100.00;100848.68;105883;1257;73777;-45
2023/08/09 03:43:49;;;;;;;1.20;1.10;;;;;;;13.42;100.00;100848.00;105889;1251;65200;-45
2023/08/09 03:46:17;;;;;;;4.70;1.00;;;;;;;13.42;100.00;100846.98;105957;1254;71102;-44
2023/08/09 03:48:44;;;;;;;2.40;0.80;;;;;;;13.43;100.00;100848.52;105955;1251;61852;-44
2023/08/09 03:51:11;;;;;;;13.70;1.20;;;;;;;13.49;100.00;100849.27;105954;1251;60469;-44
2023/08/09 03:53:39;;;;;;;0.90;0.90;;;;;;;13.57;100.00;100848.57;106039;1254;73733;-44
2023/08/09 03:56:06;;;;;;;2.20;1.10;;;;;;;13.70;100.00;100844.23;105967;1251;65796;-45
2023/08/09 03:58:33;;;;;;;2.40;1.00;;;;;;;13.90;100.00;100849.61;105895;1257;71593;-46
2023/08/09 04:01:01;;;;;;;2.80;0.70;;;;;;;14.14;100.00;100850.56;105874;1255;61914;-45
2023/08/09 04:03:28;;;;;;;1.40;0.90;;;;;;;14.40;100.00;100849.16;105966;1251;60469;-45
2023/08/09 04:05:56;;;;;;;1.40;0.70;;;;;;;14.57;100.00;100853.54;106028;1257;73819;-45
2023/08/09 04:08:26;;;;;;;4.90;0.70;;;;;;;14.76;100.00;100851.11;105831;1257;65530;-47
2023/08/09 04:10:54;;;;;;;0.70;0.70;;;;;;;14.91;100.00;100847.55;105932;1256;71293;-45
2023/08/09 04:13:21;;;;;;;2.30;0.80;;;;;;;15.07;100.00;100851.41;105956;1255;61712;-45
2023/08/09 04:15:48;;;;;;;1.80;0.60;;;;;;;15.26;100.00;100850.45;105895;1252;60611;-45
2023/08/09 04:18:16;;;;;;;2.60;0.90;;;;;;;15.53;100.00;100860.91;105988;1254;73848;-43
2023/08/09 04:20:43;;;;;;;1.00;0.60;;;;;;;15.73;100.00;100861.30;105969;1251;65485;-45
2023/08/09 04:23:12;;;;;;;1.50;0.80;;;;;;;15.96;100.00;100872.23;105913;1251;72619;-44
2023/08/09 04:25:38;;;;;;;3.70;1.00;;;;;;;16.17;100.00;100882.14;105979;1251;61857;-44
2023/08/09 04:28:08;;;;;;;4.90;0.90;;;;;;;16.23;100.00;100890.09;105992;1251;60559;-46
2023/08/09 04:30:35;;;;;;;0.90;0.70;;;;;;;16.35;100.00;100894.20;105975;1250;72636;-49
2023/08/09 04:33:06;;;;;;;1.20;1.10;;;;;;;16.49;100.00;100899.29;105942;1251;65493;-45
2023/08/09 04:35:33;;;;;;;1.20;0.90;;;;;;;16.59;100.00;100901.55;105976;1251;72411;-45
2023/08/09 04:38:03;;;;;;;0.90;0.90;;;;;;;16.69;100.00;100909.36;105957;1256;60723;-46
2023/08/09 04:40:31;;;;;;;3.80;0.90;;;;;;;16.80;100.00;100912.27;106039;1250;60699;-45
2023/08/09 04:42:58;;;;;;;1.20;0.90;;;;;;;16.83;100.00;100925.93;105981;1251;72958;-45
2023/08/09 04:45:25;;;;;;;2.30;1.00;;;;;;;16.82;100.00;100936.61;105974;1255;65282;-45
2023/08/09 04:47:52;;;;;;;1.80;0.90;;;;;;;16.92;100.00;100946.84;105931;1251;72827;-45
2023/08/09 04:50:20;;;;;;;1.50;0.90;;;;;;;17.01;100.00;100946.91;105956;1251;61842;-50
2023/08/09 04:52:47;;;;;;;1.00;0.90;;;;;;;17.14;100.00;100953.05;105985;1251;60524;-46
2023/08/09 04:55:13;;;;;;;3.70;1.50;;;;;;;17.16;100.00;100967.45;105930;1256;73713;-46
2023/08/09 04:57:40;;;;;;;1.20;1.00;;;;;;;17.15;100.00;100992.23;105996;1256;64192;-46
2023/08/09 05:00:08;;;;;;;1.60;0.80;;;;;;;17.28;100.00;101014.44;105960;1256;74257;-46
2023/08/09 05:02:36;;;;;;;1.30;0.90;;;;;;;17.47;100.00;101039.70;105954;1256;61650;-45
2023/08/09 05:05:04;;;;;;;4.20;1.30;;;;;;;17.56;100.00;101060.86;106002;1251;60393;-45
2023/08/09 05:07:32;;;;;;;1.10;1.00;;;;;;;17.64;100.00;101099.77;106060;1251;71462;-45
2023/08/09 05:10:00;;;;;;;4.00;1.20;;;;;;;17.63;100.00;101147.82;106009;1256;65542;-46
2023/08/09 05:12:26;;;;;;;1.30;1.20;;;;;;;17.58;100.00;101219.40;105998;1251;72585;-45
2023/08/09 05:14:54;;;;;;;2.10;1.00;;;;;;;17.64;100.00;101281.29;105953;1255;60322;-46
2023/08/09 05:17:21;;;;;;;2.20;1.20;;;;;;;17.55;100.00;101366.56;105947;1256;60380;-45
2023/08/09 05:19:48;;;;;;;0.90;0.90;;;;;;;17.46;100.00;101432.83;105952;1254;73862;-46
2023/08/09 05:22:15;;;;;;;1.00;0.90;;;;;;;17.49;100.00;101454.00;105963;1254;65548;-45
2023/08/09 05:24:42;;;;;;;2.10;1.30;;;;;;;17.53;100.00;101460.67;105995;1251;72648;-46
2023/08/09 05:27:09;;;;;;;1.40;1.10;;;;;;;17.57;100.00;101457.80;105979;1251;61843;-43
2023/08/09 05:29:36;;;;;;;2.00;0.90;;;;;;;17.57;100.00;101454.27;105991;1251;60454;-44
2023/08/09 05:32:04;;;;;;;1.10;1.10;;;;;;;17.63;100.00;101456.52;105959;1254;73771;-46
2023/08/09 05:34:31;;;;;;;3.00;1.30;;;;;;;17.59;100.00;101433.98;105955;1254;65380;-43
2023/08/09 05:36:58;;;;;;;4.70;1.40;;;;;;;17.64;100.00;101424.03;105952;1251;71635;-44
2023/08/09 05:39:26;;;;;;;1.30;1.10;;;;;;;17.66;100.00;101382.28;105969;1254;60350;-45
2023/08/09 05:41:53;;;;;;;1.20;1.10;;;;;;;17.66;100.00;101324.66;105960;1251;60530;-45
2023/08/09 05:44:20;;;;;;;1.20;1.20;;;;;;;17.64;100.00;101254.73;105934;1254;74191;-45
2023/08/09 05:46:47;;;;;;;0.90;0.90;;;;;;;17.66;100.00;101268.64;106030;1254;65496;-45
2023/08/09 05:49:14;;;;;;;0.90;0.90;;;;;;;17.71;100.00;101293.63;105939;1251;72565;-45
2023/08/09 05:51:41;;;;;;;1.50;1.30;;;;;;;17.78;100.00;101285.14;106072;1250;61842;-45
2023/08/09 05:54:09;;;;;;;1.30;1.00;;;;;;;17.80;100.00;101209.84;109696;1250;60341;-48
2023/08/09 05:56:35;;;;;;;1.30;0.90;;;;;;;17.82;100.00;101198.23;109692;1253;73829;-46
2023/08/09 05:59:02;;;;;;;0.90;0.90;;;;;;;17.91;100.00;101223.59;109680;1250;64536;-45
2023/08/09 06:01:29;;;;;;;1.10;1.00;;;;;;;17.98;100.00;101194.56;109634;1251;71258;-47
2023/08/09 06:03:56;;;;;;;4.10;0.90;;;;;;;17.99;100.00;101158.19;109651;1250;61846;-47
2023/08/09 06:06:23;;;;;;;1.60;1.00;;;;;;;18.05;100.00;101175.45;109662;1250;58854;-48
2023/08/09 06:12:05;;;;;;;0.90;0.90;;;;;;;18.36;100.00;101331.14;102553;1296;603406;-44
2023/08/09 06:14:33;;;;;;;1.80;0.90;;;;;;;18.49;100.00;101328.71;105168;1269;61968;-44
2023/08/09 06:17:00;;;;;;;2.20;0.90;;;;;;;18.56;100.00;101318.83;105198;1264;60161;-45
2023/08/09 06:19:28;;;;;;;7.00;1.40;;;;;;;18.54;100.00;101203.39;105182;1263;72231;-45
2023/08/09 06:21:55;;;;;;;2.00;1.40;;;;;;;18.52;100.00;101129.40;105249;1268;65442;-45
2023/08/09 06:24:22;;;;;;;1.40;1.30;;;;;;;18.56;100.00;101160.17;105009;1264;210463;-46
2023/08/09 06:26:49;;;;;;;1.30;0.90;;;;;;;18.57;100.00;101030.10;105193;1266;61827;-47
2023/08/09 06:29:16;;;;;;;3.90;1.40;;;;;;;18.53;100.00;100863.90;105226;1264;60325;-46
2023/08/09 06:31:43;;;;;;;2.60;1.30;;;;;;;18.56;100.00;100791.61;105235;1267;72177;-45
2023/08/09 06:34:10;;;;;;;1.20;1.10;;;;;;;18.60;100.00;100784.09;105632;1260;65541;-45
2023/08/09 06:36:37;;;;;;;1.80;1.10;;;;;;;18.69;100.00;100778.05;105711;1258;72756;-45
2023/08/09 06:39:03;;;;;;;1.70;1.10;;;;;;;18.80;100.00;100813.93;105676;1259;60203;-45
2023/08/09 06:41:31;;;;;;;2.60;1.40;;;;;;;18.92;100.00;100782.23;105688;1255;60325;-45
2023/08/09 06:43:58;;;;;;;2.50;1.90;;;;;;;19.00;100.00;100720.54;105683;1260;72754;-45
2023/08/09 06:46:27;;;;;;;2.80;1.30;;;;;;;19.08;100.00;100763.67;105695;1258;65434;-45
2023/08/09 06:48:54;;;;;;;2.10;1.70;;;;;;;19.17;100.00;100781.05;105678;1260;72661;-45
2023/08/09 06:51:21;;;;;;;1.80;1.20;;;;;;;19.19;100.00;100645.23;105661;1258;59607;-45
2023/08/09 06:53:49;;;;;;;2.00;1.40;;;;;;;19.18;100.00;100609.59;105639;1260;60251;-45
2023/08/09 06:56:16;;;;;;;2.10;1.10;;;;;;;19.22;100.00;100667.27;105629;1257;73034;-45
2023/08/09 06:58:43;;;;;;;1.80;1.30;;;;;;;19.28;100.00;100679.94;105702;1260;65165;-46
2023/08/09 07:01:10;;;;;;;1.50;0.80;;;;;;;19.28;100.00;100615.21;105575;1258;72680;-45
2023/08/09 07:03:37;;;;;;;1.30;1.20;;;;;;;19.30;100.00;100646.42;105704;1261;60229;-45
2023/08/09 07:06:05;;;;;;;1.40;1.30;;;;;;;19.38;100.00;100674.89;105663;1257;60321;-49
2023/08/09 07:08:32;;;;;;;2.10;1.10;;;;;;;19.55;100.00;100721.43;105609;1260;72808;-48
2023/08/09 07:10:59;;;;;;;1.10;1.10;;;;;;;19.75;100.00;100682.21;105430;1260;65466;-46
2023/08/09 07:13:26;;;;;;;1.60;1.40;;;;;;;19.87;100.00;100560.63;105627;1256;72659;-48
2023/08/09 07:15:53;;;;;;;0.80;0.80;;;;;;;20.01;100.00;100550.39;105655;1258;60225;-44
2023/08/09 07:18:20;;;;;;;2.30;0.80;;;;;;;20.20;100.00;100516.03;105690;1257;60318;-44
2023/08/09 07:20:47;;;;;;;0.90;0.90;;;;;;;20.31;100.00;100472.64;105668;1260;73152;-45
2023/08/09 07:23:14;;;;;;;0.70;0.70;;;;;;;20.39;100.00;100486.39;105615;1259;65343;-45
2023/08/09 07:28:48;;;;;;;2.10;0.90;;;;;;;20.66;100.00;100461.13;102416;1296;603413;-45
2023/08/09 07:31:18;;;;;;;0.90;0.70;;;;;;;20.75;100.00;100501.24;104835;1270;60344;-46
2023/08/09 07:33:45;;;;;;;0.70;0.70;;;;;;;20.83;100.00;100561.09;104850;1266;59491;-46
2023/08/09 07:36:13;;;;;;;1.10;1.10;;;;;;;20.83;100.00;100593.23;104879;1270;71909;-45
2023/08/09 07:38:39;;;;;;;3.70;0.90;;;;;;;20.87;100.00;100548.47;104814;1270;65450;-46
2023/08/09 07:41:07;;;;;;;1.90;0.70;;;;;;;20.98;100.00;100556.05;104713;1265;232665;-45
2023/08/09 07:43:33;;;;;;;1.00;1.00;;;;;;;21.11;100.00;100576.80;105143;1268;60241;-45
2023/08/09 07:46:03;;;;;;;1.00;0.90;;;;;;;21.25;100.00;100661.95;105177;1264;60307;-45
2023/08/09 07:48:30;;;;;;;2.70;1.00;;;;;;;21.24;100.00;100687.80;105098;1264;72024;-45
2023/08/09 07:50:57;;;;;;;1.20;1.00;;;;;;;21.35;100.00;100672.77;105566;1260;65400;-46
2023/08/09 07:53:24;;;;;;;0.60;0.60;;;;;;;21.48;100.00;100659.89;105585;1258;72645;-45
2023/08/09 07:55:51;;;;;;;1.00;0.90;;;;;;;21.46;100.00;100686.33;105560;1260;60745;-50
2023/08/09 07:58:18;;;;;;;3.20;0.90;;;;;;;21.32;100.00;100671.00;105565;1258;60190;-46
2023/08/09 08:00:46;;;;;;;0.80;0.80;;;;;;;21.26;100.00;100672.23;105585;1260;73067;-45
2023/08/09 08:03:33;;;;;;;1.90;0.80;;;;;;;21.50;100.00;100629.35;105552;1260;65511;-45
2023/08/09 08:06:00;;;;;;;1.00;0.80;;;;;;;21.84;100.00;100602.52;105591;1257;72332;-45
2023/08/09 08:08:27;;;;;;;2.30;0.80;;;;;;;22.00;100.00;100609.84;105559;1261;60397;-48
2023/08/09 08:10:55;;;;;;;0.90;0.90;;;;;;;22.01;100.00;100616.45;105505;1257;60157;-45
2023/08/09 08:13:22;;;;;;;1.10;0.90;;;;;;;21.98;100.00;100642.44;105471;1258;73066;-45
2023/08/09 08:15:50;;;;;;;1.00;0.90;;;;;;;21.88;100.00;100679.58;105531;1262;65532;-45
2023/08/09 08:18:17;;;;;;;3.20;0.70;;;;;;;21.82;100.00;100681.15;105610;1258;72448;-45
2023/08/09 08:20:44;;;;;;;1.00;0.80;;;;;;;21.77;100.00;100710.08;105582;1257;60275;-45
2023/08/09 08:23:10;;;;;;;1.20;0.90;;;;;;;21.85;100.00;100726.16;105670;1256;60291;-46
2023/08/09 08:25:37;;;;;;;1.00;0.90;;;;;;;21.87;100.00;100726.20;105557;1256;73081;-45
2023/08/09 08:28:05;;;;;;;0.80;0.80;;;;;;;21.97;100.00;100658.28;105685;1257;64847;-44
2023/08/09 08:30:33;;;;;;;4.40;1.00;;;;;;;22.18;100.00;100623.76;105680;1257;71897;-45
2023/08/09 08:33:00;;;;;;;0.80;0.80;;;;;;;22.17;100.00;100647.88;105588;1259;60188;-45
2023/08/09 08:35:33;;;;;;;1.00;0.90;;;;;;;22.14;100.00;100614.15;105501;1257;61348;-45
2023/08/09 08:38:00;;;;;;;1.00;0.90;;;;;;;22.22;100.00;100598.91;105501;1260;72988;-47
2023/08/09 08:40:27;;;;;;;0.70;0.70;;;;;;;22.22;100.00;100637.71;105551;1262;65372;-47
2023/08/09 08:42:54;;;;;;;1.40;0.80;;;;;;;22.19;100.00;100659.52;105512;1259;72412;-46
2023/08/09 08:45:22;;;;;;;0.90;0.90;;;;;;;22.02;100.00;100708.02;105449;1259;60411;-45
2023/08/09 08:47:49;;;;;;;3.30;1.20;;;;;;;21.82;100.00;100713.80;105540;1257;60316;-45
2023/08/09 08:50:17;;;;;;;0.80;0.80;;;;;;;21.81;100.00;100719.36;105517;1257;73084;-46
2023/08/09 08:52:45;;;;;;;2.70;0.80;;;;;;;22.07;100.00;100681.40;105496;1262;65412;-45
2023/08/09 08:55:13;;;;;;;2.90;0.90;;;;;;;22.44;100.00;100710.31;105502;1257;72515;-45
2023/08/09 08:57:40;;;;;;;1.70;0.80;;;;;;;22.78;100.00;100707.45;105476;1262;60919;-45
2023/08/09 09:00:16;;;;;;;1.20;1.10;;;;;;;23.03;100.00;100727.30;105565;1258;60233;-46
2023/08/09 09:02:54;;;;;;;1.20;1.20;;;;;;;23.09;100.00;100788.64;105483;1258;72943;-46
2023/08/09 09:05:22;;;;;;;1.20;1.20;;;;;;;23.27;100.00;100786.59;105640;1262;65531;-45
2023/08/09 09:07:52;;;;;;;2.70;1.10;;;;;;;23.59;100.00;100781.27;105471;1258;72564;-46
2023/08/09 09:10:20;;;;;;;2.90;1.40;;;;;;;23.81;100.00;100830.55;105534;1262;60367;-45
2023/08/09 09:12:53;;;;;;;1.10;1.10;;;;;;;23.89;97.74;100841.67;105549;1258;60329;-46
2023/08/09 09:15:21;;;;;;;1.30;1.00;;;;;;;23.83;94.74;100867.42;105485;1258;73363;-46
2023/08/09 09:17:48;;;;;;;1.80;1.20;;;;;;;23.88;95.86;100871.99;105510;1258;65487;-45
2023/08/09 09:20:23;;;;;;;1.40;1.20;;;;;;;24.07;90.64;100857.86;105494;1259;72737;-47
2023/08/09 09:22:51;;;;;;;1.20;1.10;;;;;;;24.15;91.95;100884.30;105218;1257;61551;-46
2023/08/09 09:25:18;;;;;;;1.50;1.30;;;;;;;24.18;98.84;100888.14;105269;1261;59605;-46
2023/08/09 09:27:49;;;;;;;1.20;1.10;;;;;;;24.10;91.19;100877.06;105320;1257;73000;-48
2023/08/09 09:30:19;;;;;;;1.20;1.00;;;;;;;23.94;92.25;100889.92;105522;1262;65534;-47
2023/08/09 09:32:51;;;;;;;0.90;0.90;;;;;;;24.02;87.48;100867.59;105296;1259;74025;-45
2023/08/09 09:35:18;;;;;;;1.40;1.30;;;;;;;24.06;85.60;100870.27;105505;1262;60201;-45
2023/08/09 09:37:49;;;;;;;1.20;1.20;;;;;;;23.99;82.92;100875.66;105523;1258;60284;-45
2023/08/09 09:40:42;;;;;;;1.30;1.20;;;;;;;23.66;86.67;100898.64;105471;1259;72037;-45
2023/08/09 09:43:09;;;;;;;1.30;1.20;;;;;;;23.40;89.99;100909.00;105506;1262;65577;-45
2023/08/09 09:45:36;;;;;;;1.10;1.00;;;;;;;23.40;95.70;100908.30;105291;1258;71637;-45
2023/08/09 09:48:04;;;;;;;1.20;1.10;;;;;;;23.66;100.00;100909.59;105423;1261;60283;-45
2023/08/09 09:50:31;;;;;;;1.20;1.20;;;;;;;24.01;93.37;100875.16;105512;1258;60417;-45
2023/08/09 09:52:58;;;;;;;0.80;0.80;;;;;;;24.26;77.94;100829.21;105563;1257;72968;-45
2023/08/09 09:55:29;;;;;;;1.10;1.00;;;;;;;24.29;77.94;100863.61;105463;1262;65581;-45
2023/08/09 09:57:57;;;;;;;1.00;1.00;;;;;;;24.10;78.04;100885.03;105509;1261;72529;-46
2023/08/09 10:00:27;;;;;;;1.30;1.30;;;;;;;23.69;79.25;100904.27;105531;1262;60477;-45
2023/08/09 10:02:55;;;;;;;5.40;1.30;;;;;;;23.49;97.64;100943.98;105558;1257;60282;-45
2023/08/09 10:05:28;;;;;;;1.30;1.20;;;;;;;23.76;100.00;100917.36;105549;1259;72999;-45
2023/08/09 10:07:56;;;;;;;1.50;1.40;;;;;;;23.88;100.00;100892.25;105500;1262;65542;-45
2023/08/09 10:10:26;;;;;;;2.20;1.40;;;;;;;23.80;98.28;100887.55;105460;1262;71443;-45
2023/08/09 10:12:54;;;;;;;1.40;1.30;;;;;;;23.78;99.43;100900.14;105334;1259;60444;-46
2023/08/09 10:15:53;;;;;;;5.70;1.20;;;;;;;24.03;89.44;100860.64;105513;1262;59626;-46
2023/08/09 10:18:33;;;;;;;1.20;1.00;;;;;;;24.22;80.60;100857.36;105483;1262;73032;-44
2023/08/09 10:21:00;;;;;;;4.10;1.10;;;;;;;24.42;81.31;100879.61;105525;1262;65494;-45
2023/08/09 10:23:30;;;;;;;2.80;1.10;;;;;;;24.60;76.17;100839.55;105468;1257;72705;-45
2023/08/09 10:25:58;;;;;;;2.30;1.00;;;;;;;24.37;73.89;100853.67;105504;1262;59548;-46
2023/08/09 10:28:47;;;;;;;2.40;1.40;;;;;;;24.24;73.00;100860.80;105476;1259;60287;-45
2023/08/09 10:31:14;;;;;;;2.70;1.60;;;;;;;24.29;73.32;100869.77;105571;1259;72127;-46
2023/08/09 10:34:07;;;;;;;1.70;1.40;;;;;;;24.28;72.02;100862.48;105499;1262;65571;-45
2023/08/09 10:36:34;;;;;;;1.50;1.40;;;;;;;24.16;72.92;100880.02;105491;1259;72628;-45
2023/08/09 10:39:20;;;;;;;1.30;1.20;;;;;;;24.14;73.80;100887.75;105493;1262;59651;-47
2023/08/09 10:41:54;;;;;;;;;;;;;;;24.34;74.10;100876.67;105524;1258;59991;-49
2023/08/09 10:44:52;;;;;;;1.60;1.50;;;;;;;24.46;70.76;100834.02;105582;1259;72996;-46
2023/08/09 10:47:25;;;;;;;1.70;1.00;;;;;;;24.21;74.00;100889.52;105373;1264;64567;-45
2023/08/09 10:49:53;;;;;;;2.30;1.20;;;;;;;24.18;75.92;100904.41;105520;1258;72611;-46
2023/08/09 10:52:31;;;;;;;1.50;1.30;;;;;;;24.14;76.61;100903.98;105536;1262;60091;-46
2023/08/09 10:55:18;;;;;;;5.60;1.30;;;;;;;24.13;72.80;100866.80;105521;1262;60919;-46
2023/08/09 10:57:49;;;;;;;1.80;1.60;;;;;;;24.26;73.93;100884.10;105548;1257;73116;-46
2023/08/09 11:00:18;;;;;;;1.50;1.40;;;;;;;24.37;74.21;100887.16;105622;1260;65246;-45
2023/08/09 11:02:52;;;;;;;1.20;1.20;;;;;;;24.49;73.11;100875.41;105653;1257;72615;-45
2023/08/09 11:05:20;;;;;;;1.50;1.40;;;;;;;24.64;72.92;100866.80;105666;1260;60486;-46
2023/08/09 11:07:53;;;;;;;1.70;1.40;;;;;;;24.88;73.92;100872.73;105638;1257;59545;-46
2023/08/09 11:10:30;;;;;;;3.10;1.40;;;;;;;25.12;69.69;100815.58;105675;1260;73013;-46
2023/08/09 11:12:57;;;;;;;1.30;1.20;;;;;;;25.18;66.73;100790.22;105621;1260;65546;-46
2023/08/09 11:15:24;;;;;;;1.60;1.50;;;;;;;25.15;65.72;100787.09;105648;1262;72517;-45
2023/08/09 11:17:51;;;;;;;1.40;1.40;;;;;;;25.16;65.93;100802.91;105619;1260;61321;-45
2023/08/09 11:20:19;;;;;;;4.30;1.40;;;;;;;25.24;67.23;100834.97;105591;1256;60019;-45
2023/08/09 11:22:56;;;;;;;1.40;1.10;;;;;;;25.36;67.92;100843.74;105657;1258;73076;-46
2023/08/09 11:25:24;;;;;;;1.40;1.20;;;;;;;25.66;63.78;100755.70;105622;1260;65271;-45